Time;durP1;ratioP1;P1;durP2;ratioP2;P2;SDS_P1;SDS_P2;PMS_P1;PMS_P2;Temp;Humidity;BMP_temperature;BMP_pressure;BME280_temperature;BME280_humidity;BME280_pressure;Samples;Min_cycle;Max_cycle;Signal;HPM_P1;HPM_P2
2022/06/23 00:01:26;;;;;;;19.30;7.70;;;16.60;99.90;;;;;;5053078;28;20056;-64
2022/06/23 00:03:55;;;;;;;18.85;7.60;;;16.60;99.90;;;;;;5071596;28;20082;-64
2022/06/23 00:06:40;;;;;;;14.88;8.13;;;16.60;99.90;;;;;;5071269;28;20044;-64
2022/06/23 00:09:46;;;;;;;19.23;7.40;;;16.60;99.90;;;;;;5070987;28;20044;-64
2022/06/23 00:12:27;;;;;;;15.43;7.22;;;16.60;99.90;;;;;;5051102;28;20045;-64
2022/06/23 00:15:15;;;;;;;10.57;6.22;;;16.60;99.90;;;;;;5051122;28;20044;-64
2022/06/23 00:17:53;;;;;;;12.32;6.63;;;16.60;99.90;;;;;;5055827;28;20451;-64
2022/06/23 00:20:25;;;;;;;7.47;5.32;;;16.50;99.90;;;;;;5069160;28;20107;-64
2022/06/23 00:22:59;;;;;;;13.05;6.93;;;16.50;99.90;;;;;;5070894;28;20497;-64
2022/06/23 00:25:29;;;;;;;14.23;7.15;;;16.50;99.90;;;;;;5071213;28;20045;-64
2022/06/23 00:27:57;;;;;;;14.98;7.25;;;16.60;99.90;;;;;;5070548;28;20044;-64
2022/06/23 00:30:37;;;;;;;15.25;7.00;;;16.60;99.90;;;;;;5070813;28;20037;-64
2022/06/23 00:33:19;;;;;;;15.35;8.52;;;16.60;99.90;;;;;;5071281;28;20117;-64
2022/06/23 00:35:48;;;;;;;18.50;7.88;;;16.60;99.90;;;;;;5069419;28;20052;-64
2022/06/23 00:38:30;;;;;;;12.98;7.28;;;16.60;99.90;;;;;;5070904;28;20048;-64
2022/06/23 00:40:59;;;;;;;18.40;7.65;;;16.50;99.90;;;;;;5070629;28;20041;-64
2022/06/23 00:43:27;;;;;;;19.13;6.93;;;16.50;99.90;;;;;;5070968;28;20044;-64
2022/06/23 00:46:26;;;;;;;11.88;6.35;;;16.50;99.90;;;;;;5071062;28;20056;-63
2022/06/23 00:49:00;;;;;;;12.95;5.90;;;16.40;99.90;;;;;;5075124;28;20044;-63
2022/06/23 00:51:41;;;;;;;9.77;5.20;;;16.40;99.90;;;;;;5074673;28;20451;-63
2022/06/23 00:54:20;;;;;;;13.63;5.20;;;16.40;99.90;;;;;;5074457;28;20044;-64
2022/06/23 00:57:02;;;;;;;11.65;5.15;;;16.50;99.90;;;;;;5074681;28;20512;-63
2022/06/23 00:59:43;;;;;;;11.98;5.00;;;16.50;99.90;;;;;;5074728;28;20055;-63
2022/06/23 01:02:16;;;;;;;11.20;4.80;;;16.50;99.90;;;;;;5074128;28;20041;-64
2022/06/23 01:05:02;;;;;;;12.75;5.15;;;16.50;99.90;;;;;;5074541;28;20037;-64
2022/06/23 01:07:59;;;;;;;12.07;5.15;;;16.50;99.90;;;;;;5074625;28;20059;-63
2022/06/23 01:10:31;;;;;;;13.48;5.45;;;16.40;99.90;;;;;;5074255;28;20040;-63
2022/06/23 01:13:13;;;;;;;12.73;4.93;;;16.40;99.90;;;;;;5073988;28;20431;-64
2022/06/23 01:15:44;;;;;;;12.40;4.40;;;16.40;99.90;;;;;;5074452;28;20048;-64
2022/06/23 01:18:32;;;;;;;8.50;4.15;;;16.40;99.90;;;;;;5073164;28;20094;-63
2022/06/23 01:21:22;;;;;;;14.05;4.80;;;16.30;99.90;;;;;;5073464;28;20047;-64
2022/06/23 01:24:18;;;;;;;16.60;4.57;;;16.30;99.90;;;;;;5050562;28;20579;-64
2022/06/23 01:27:00;;;;;;;10.70;4.18;;;16.30;99.90;;;;;;5054283;28;20045;-64
2022/06/23 01:29:44;;;;;;;11.23;4.90;;;16.20;99.90;;;;;;5073214;28;20443;-64
2022/06/23 01:32:32;;;;;;;10.82;4.53;;;16.20;99.90;;;;;;5054135;28;20041;-64
2022/06/23 01:35:14;;;;;;;14.80;5.18;;;16.20;99.90;;;;;;5054288;28;20041;-63
2022/06/23 01:38:16;;;;;;;11.95;4.88;;;16.30;99.90;;;;;;5063981;28;20036;-64
2022/06/23 01:40:58;;;;;;;12.00;5.25;;;16.30;99.90;;;;;;5045257;28;20064;-63
2022/06/23 01:43:43;;;;;;;8.70;4.70;;;16.30;99.90;;;;;;5054048;28;20493;-64
2022/06/23 01:46:24;;;;;;;9.80;5.50;;;16.30;99.90;;;;;;5053811;28;20079;-61
2022/06/23 01:49:10;;;;;;;13.77;5.53;;;16.30;99.90;;;;;;5065722;28;20404;-62
2022/06/23 01:51:50;;;;;;;10.60;5.13;;;16.30;99.90;;;;;;5072896;28;20041;-62
2022/06/23 01:54:20;;;;;;;10.93;5.47;;;16.30;99.90;;;;;;5073879;28;20091;-62
2022/06/23 01:57:05;;;;;;;11.38;5.45;;;16.30;99.90;;;;;;5068884;28;20489;-64
2022/06/23 01:59:51;;;;;;;14.45;5.78;;;16.30;99.90;;;;;;5073785;28;20557;-64
2022/06/23 02:02:39;;;;;;;11.60;5.60;;;16.20;99.90;;;;;;5073831;28;20477;-64
2022/06/23 02:05:25;;;;;;;11.23;5.32;;;16.20;99.90;;;;;;5072613;28;20047;-64
2022/06/23 02:08:08;;;;;;;9.32;5.85;;;16.20;99.90;;;;;;5073441;28;20048;-64
2022/06/23 02:10:52;;;;;;;11.27;5.70;;;16.20;99.90;;;;;;5073219;28;20079;-64
2022/06/23 02:13:28;;;;;;;12.10;5.50;;;16.20;99.90;;;;;;5073653;28;20098;-64
2022/06/23 02:15:55;;;;;;;11.05;5.88;;;16.20;99.90;;;;;;5069634;28;20102;-64
2022/06/23 02:18:38;;;;;;;14.95;5.82;;;16.20;99.90;;;;;;5073128;28;20064;-64
2022/06/23 02:21:24;;;;;;;9.90;5.35;;;16.20;99.90;;;;;;5073090;28;20089;-63
2022/06/23 02:23:58;;;;;;;11.57;5.10;;;16.30;99.90;;;;;;5070917;28;20055;-63
2022/06/23 02:26:53;;;;;;;10.57;5.55;;;16.30;99.90;;;;;;5068318;28;20045;-63
2022/06/23 02:29:27;;;;;;;14.75;5.03;;;16.20;99.90;;;;;;5053027;28;20091;-63
2022/06/23 02:32:05;;;;;;;9.98;5.10;;;16.30;99.90;;;;;;5055155;28;20452;-64
2022/06/23 02:34:46;;;;;;;12.80;5.38;;;16.20;99.90;;;;;;5072940;28;20807;-64
2022/06/23 02:37:47;;;;;;;16.30;5.72;;;16.20;99.90;;;;;;5072872;28;20044;-63
2022/06/23 02:40:50;;;;;;;11.55;5.63;;;16.20;99.90;;;;;;5072652;28;20052;-64
2022/06/23 02:43:31;;;;;;;10.88;5.15;;;16.10;99.90;;;;;;5023059;28;20055;-63
2022/06/23 02:46:16;;;;;;;16.70;5.57;;;16.10;99.90;;;;;;5072783;28;20051;-63
2022/06/23 02:49:15;;;;;;;10.05;4.70;;;16.10;99.90;;;;;;5072153;28;20468;-64
2022/06/23 02:52:07;;;;;;;18.67;4.45;;;16.00;99.90;;;;;;5065120;28;20041;-63
2022/06/23 02:55:02;;;;;;;14.15;4.85;;;16.00;99.90;;;;;;5072533;28;20086;-63
2022/06/23 02:57:36;;;;;;;12.20;4.80;;;15.90;99.90;;;;;;5072525;28;20102;-64
2022/06/23 03:00:32;;;;;;;12.18;4.15;;;15.90;99.90;;;;;;5071173;28;20117;-64
2022/06/23 03:03:05;;;;;;;10.38;3.92;;;15.90;99.90;;;;;;5072501;28;20070;-64
2022/06/23 03:05:39;;;;;;;12.95;4.50;;;15.90;99.90;;;;;;5072373;28;20044;-64
2022/06/23 03:08:22;;;;;;;14.50;5.32;;;15.90;99.90;;;;;;5063893;28;20036;-63
2022/06/23 03:11:01;;;;;;;9.55;4.10;;;15.90;99.90;;;;;;5071873;28;20668;-63
2022/06/23 03:13:49;;;;;;;6.97;4.07;;;15.90;99.90;;;;;;5072456;28;20053;-64
2022/06/23 03:16:32;;;;;;;13.05;4.50;;;15.80;99.90;;;;;;5070298;28;20048;-63
2022/06/23 03:19:12;;;;;;;9.10;4.15;;;15.80;99.90;;;;;;5071837;28;20064;-64
2022/06/23 03:22:05;;;;;;;8.35;4.40;;;15.80;99.90;;;;;;5071739;28;20033;-63
2022/06/23 03:24:39;;;;;;;7.47;4.05;;;15.80;99.90;;;;;;5072156;28;20082;-64
2022/06/23 03:27:19;;;;;;;15.98;4.40;;;15.80;99.90;;;;;;5068606;28;20340;-64
2022/06/23 03:30:00;;;;;;;10.43;4.85;;;15.80;99.90;;;;;;5071927;28;20044;-63
2022/06/23 03:32:35;;;;;;;9.55;4.97;;;15.70;99.90;;;;;;5054020;28;20515;-64
2022/06/23 03:35:25;;;;;;;10.98;4.75;;;15.80;99.90;;;;;;5045212;28;20041;-63
2022/06/23 03:37:57;;;;;;;13.50;4.35;;;15.80;99.90;;;;;;5070549;28;20040;-63
2022/06/23 03:43:56;;;;;;;13.10;4.82;;;15.80;99.90;;;;;;5066230;28;20040;-63
2022/06/23 03:46:39;;;;;;;14.73;5.40;;;15.80;99.90;;;;;;5066339;28;20045;-63
2022/06/23 03:49:16;;;;;;;13.63;4.70;;;15.80;99.90;;;;;;5063563;28;20445;-64
2022/06/23 03:51:59;;;;;;;11.65;4.70;;;15.90;99.90;;;;;;5071235;28;20044;-64
2022/06/23 03:54:34;;;;;;;18.10;4.95;;;15.90;99.90;;;;;;5071280;28;20481;-63
2022/06/23 03:57:13;;;;;;;13.20;4.55;;;15.90;99.90;;;;;;5067086;28;20040;-64
2022/06/23 04:00:22;;;;;;;14.15;5.53;;;16.00;99.90;;;;;;5071447;28;20060;-63
2022/06/23 04:03:13;;;;;;;9.05;4.75;;;16.10;99.90;;;;;;5071513;28;20044;-63
2022/06/23 04:06:21;;;;;;;11.75;4.70;;;16.10;99.90;;;;;;5035478;28;20097;-63
2022/06/23 04:09:01;;;;;;;11.80;4.47;;;16.10;99.90;;;;;;5051668;28;20056;-63
2022/06/23 04:11:43;;;;;;;12.35;4.60;;;16.20;99.90;;;;;;5071050;28;20040;-63
2022/06/23 04:14:16;;;;;;;9.25;4.82;;;16.20;99.90;;;;;;5064918;28;20044;-64
2022/06/23 04:16:46;;;;;;;9.23;4.97;;;16.20;99.90;;;;;;5071022;28;20135;-64
2022/06/23 04:19:28;;;;;;;13.98;5.18;;;16.20;99.90;;;;;;5070827;28;20500;-63
2022/06/23 04:22:09;;;;;;;16.48;5.65;;;16.30;99.90;;;;;;5070393;28;20052;-63
2022/06/23 04:24:45;;;;;;;11.57;4.50;;;16.30;99.90;;;;;;5071642;28;20048;-63
2022/06/23 04:27:21;;;;;;;12.93;5.28;;;16.40;99.90;;;;;;5071291;28;20045;-63
2022/06/23 04:29:52;;;;;;;12.30;4.78;;;16.50;99.90;;;;;;5069691;28;20037;-64
2022/06/23 04:32:30;;;;;;;15.13;5.55;;;16.50;99.90;;;;;;5071486;28;20037;-64
2022/06/23 04:35:04;;;;;;;15.43;6.68;;;16.50;99.90;;;;;;5071327;28;20040;-64
2022/06/23 04:37:54;;;;;;;10.70;6.88;;;16.50;99.90;;;;;;5069763;28;20047;-64
2022/06/23 04:40:27;;;;;;;14.70;7.13;;;16.50;99.90;;;;;;5065256;28;20044;-63
2022/06/23 04:43:04;;;;;;;15.93;7.07;;;16.50;99.90;;;;;;5071003;28;20053;-63
2022/06/23 04:45:49;;;;;;;9.50;5.82;;;16.60;99.90;;;;;;5071030;28;20048;-63
2022/06/23 04:48:32;;;;;;;14.52;6.15;;;16.60;99.90;;;;;;5062117;28;20119;-63
2022/06/23 04:51:18;;;;;;;13.68;6.00;;;16.60;99.90;;;;;;5052519;28;20049;-63
2022/06/23 04:53:51;;;;;;;17.55;6.47;;;16.60;99.90;;;;;;5070720;28;20051;-63
2022/06/23 04:56:28;;;;;;;17.10;6.93;;;16.60;99.90;;;;;;5070592;28;20558;-64
2022/06/23 04:59:00;;;;;;;15.80;6.73;;;16.60;99.90;;;;;;5070279;28;20040;-63
2022/06/23 05:01:38;;;;;;;17.25;6.72;;;16.70;99.90;;;;;;5070450;28;20263;-63
2022/06/23 05:04:13;;;;;;;13.77;6.18;;;16.80;99.90;;;;;;5070580;28;20044;-64
2022/06/23 05:06:44;;;;;;;13.40;6.35;;;16.80;99.90;;;;;;5066864;28;20044;-64
2022/06/23 05:09:19;;;;;;;13.60;6.15;;;16.80;99.90;;;;;;5070568;28;20037;-64
2022/06/23 05:11:52;;;;;;;18.45;6.15;;;16.90;99.90;;;;;;5070134;28;20559;-64
2022/06/23 05:14:42;;;;;;;19.08;6.30;;;16.90;99.90;;;;;;5065133;28;20036;-64
2022/06/23 05:17:20;;;;;;;13.40;6.10;;;17.00;99.90;;;;;;5063540;28;20045;-64
2022/06/23 05:19:51;;;;;;;16.00;6.47;;;17.00;99.90;;;;;;5070630;28;20040;-64
2022/06/23 05:22:24;;;;;;;10.77;5.80;;;17.10;99.90;;;;;;5069603;28;20079;-64
2022/06/23 05:24:53;;;;;;;11.25;5.57;;;17.20;99.90;;;;;;5068797;28;20051;-64
2022/06/23 05:27:23;;;;;;;15.07;5.88;;;17.30;99.90;;;;;;5069423;28;20074;-64
2022/06/23 05:29:56;;;;;;;11.95;4.80;;;17.50;99.90;;;;;;5069801;28;20516;-63
2022/06/23 05:32:43;;;;;;;12.32;4.38;;;17.60;99.90;;;;;;5068610;28;20121;-64
2022/06/23 05:35:21;;;;;;;9.90;4.35;;;17.70;99.90;;;;;;5054388;28;20056;-64
2022/06/23 05:37:53;;;;;;;11.73;4.65;;;17.70;99.90;;;;;;5054049;28;20463;-64
2022/06/23 05:40:34;;;;;;;10.65;4.13;;;17.70;99.90;;;;;;5073557;28;20501;-64
2022/06/23 05:43:03;;;;;;;12.77;4.47;;;17.70;99.90;;;;;;5054253;28;20041;-63
2022/06/23 05:45:38;;;;;;;15.30;5.03;;;17.70;99.90;;;;;;5053796;28;20044;-64
2022/06/23 05:48:10;;;;;;;14.77;5.00;;;17.70;99.90;;;;;;5062097;28;20045;-64
2022/06/23 05:50:49;;;;;;;9.57;4.40;;;17.70;99.90;;;;;;5073443;28;20053;-64
2022/06/23 05:53:19;;;;;;;10.15;4.40;;;17.80;99.90;;;;;;5068133;28;20051;-63
2022/06/23 05:55:58;;;;;;;9.77;4.13;;;17.80;99.90;;;;;;5055912;28;20048;-64
2022/06/23 05:58:37;;;;;;;15.13;5.18;;;17.90;99.90;;;;;;5055444;28;20044;-64
2022/06/23 06:01:25;;;;;;;10.18;4.28;;;17.80;99.90;;;;;;5054799;28;20105;-64
2022/06/23 06:04:19;;;;;;;13.00;4.10;;;17.70;99.90;;;;;;5073613;28;20090;-64
2022/06/23 06:06:46;;;;;;;14.30;4.95;;;17.70;99.90;;;;;;5073283;28;20485;-64
2022/06/23 06:12:22;;;;;;;11.38;4.20;;;17.80;99.90;;;;;;5064880;28;19973;-64
2022/06/23 06:15:01;;;;;;;9.68;4.10;;;17.70;99.90;;;;;;5059460;28;20060;-64
2022/06/23 06:17:30;;;;;;;9.40;3.83;;;17.80;99.90;;;;;;5070290;28;20044;-64
2022/06/23 06:20:03;;;;;;;10.48;4.07;;;17.80;99.90;;;;;;5072635;28;20044;-64
2022/06/23 06:22:58;;;;;;;9.70;3.88;;;17.90;99.90;;;;;;5073157;28;20069;-64
2022/06/23 06:25:29;;;;;;;11.05;3.90;;;17.90;99.90;;;;;;5054430;28;20049;-64
2022/06/23 06:28:01;;;;;;;13.13;4.32;;;18.00;99.90;;;;;;5072675;28;20068;-64
2022/06/23 06:30:35;;;;;;;8.85;3.95;;;18.00;99.90;;;;;;5072822;28;20048;-64
2022/06/23 06:33:04;;;;;;;9.23;4.35;;;18.20;99.90;;;;;;5071945;28;20049;-64
2022/06/23 06:35:38;;;;;;;12.93;4.05;;;18.00;99.90;;;;;;5072805;28;20049;-64
2022/06/23 06:38:14;;;;;;;8.10;4.07;;;18.10;99.90;;;;;;5052754;28;20094;-64
2022/06/23 06:40:43;;;;;;;17.08;5.10;;;18.30;99.90;;;;;;5052381;28;20052;-64
2022/06/23 06:43:15;;;;;;;13.13;4.03;;;18.40;99.90;;;;;;5057453;28;20036;-64
2022/06/23 06:45:42;;;;;;;11.43;3.70;;;18.50;99.90;;;;;;5072900;28;20045;-64
2022/06/23 06:48:32;;;;;;;;;;;18.60;99.90;;;;;;5073111;28;20135;-64
2022/06/23 06:51:02;;;;;;;10.48;4.13;;;18.80;99.90;;;;;;5056971;28;19980;-64
2022/06/23 06:53:37;;;;;;;14.55;4.50;;;18.90;99.90;;;;;;5072874;28;20044;-64
2022/06/23 06:56:19;;;;;;;10.85;4.20;;;18.80;99.90;;;;;;5072746;28;20049;-64
2022/06/23 06:59:11;;;;;;;34.67;6.20;;;18.80;99.90;;;;;;5072622;28;20470;-64
2022/06/23 07:01:41;;;;;;;6.93;3.83;;;18.70;99.90;;;;;;5063868;28;20550;-64
2022/06/23 07:04:25;;;;;;;7.07;3.80;;;18.80;99.90;;;;;;5072366;28;20062;-64
2022/06/23 07:07:02;;;;;;;13.65;3.65;;;19.00;99.90;;;;;;5072588;28;20048;-64
2022/06/23 07:09:37;;;;;;;14.85;3.72;;;19.20;99.90;;;;;;5071221;28;20044;-64
2022/06/23 07:12:06;;;;;;;10.35;3.38;;;19.40;99.90;;;;;;5072130;28;20041;-64
2022/06/23 07:15:11;;;;;;;13.55;4.25;;;19.40;99.90;;;;;;5072219;28;20040;-64
2022/06/23 07:17:46;;;;;;;10.35;4.10;;;19.30;99.90;;;;;;5047977;28;20493;-64
2022/06/23 07:20:22;;;;;;;9.02;3.72;;;19.50;99.90;;;;;;5070440;28;20040;-64
2022/06/23 07:23:07;;;;;;;7.53;3.47;;;19.70;99.90;;;;;;5067306;28;20037;-63
2022/06/23 07:25:38;;;;;;;6.57;3.50;;;19.80;99.90;;;;;;5068078;28;20098;-64
2022/06/23 07:28:16;;;;;;;8.13;3.65;;;19.90;99.90;;;;;;5069252;28;20448;-64
2022/06/23 07:30:44;;;;;;;;;;;20.00;99.90;;;;;;5072069;28;20044;-64
2022/06/23 07:33:36;;;;;;;6.07;3.47;;;20.10;99.90;;;;;;5065783;28;19966;-62
2022/06/23 07:36:22;;;;;;;11.40;3.63;;;20.20;99.90;;;;;;5053783;28;20064;-64
2022/06/23 07:39:02;;;;;;;10.18;3.63;;;20.30;99.90;;;;;;5071643;28;20417;-64
2022/06/23 07:41:37;;;;;;;12.88;3.55;;;20.40;99.90;;;;;;5066250;28;20048;-64
2022/06/23 07:44:21;;;;;;;10.10;3.22;;;20.50;99.90;;;;;;5064050;28;20047;-64
2022/06/23 07:46:48;;;;;;;9.90;3.70;;;20.70;99.90;;;;;;5089342;22;20098;-63
2022/06/23 07:49:39;;;;;;;8.63;3.78;;;20.70;99.90;;;;;;5037567;28;20401;-64
2022/06/23 07:52:23;;;;;;;7.68;3.67;;;20.70;99.90;;;;;;5025989;28;20098;-64
2022/06/23 07:54:50;;;;;;;6.57;3.78;;;20.80;99.90;;;;;;5042878;28;20049;-64
2022/06/23 07:57:17;;;;;;;9.10;4.00;;;20.90;99.90;;;;;;5033930;28;20084;-64
2022/06/23 08:00:00;;;;;;;11.88;3.72;;;20.80;99.90;;;;;;5031354;28;20133;-64
2022/06/23 08:03:00;;;;;;;8.90;3.78;;;20.80;99.90;;;;;;5039622;28;20128;-64
2022/06/23 08:05:39;;;;;;;6.57;3.25;;;20.90;99.90;;;;;;5051499;28;20130;-64
2022/06/23 08:08:12;;;;;;;7.95;3.30;;;20.90;99.90;;;;;;5051489;28;20539;-64
2022/06/23 08:10:40;;;;;;;11.13;3.72;;;20.90;99.90;;;;;;5027710;28;20049;-64
2022/06/23 08:13:22;;;;;;;6.75;3.28;;;21.00;99.90;;;;;;5043762;28;20107;-64
2022/06/23 08:18:53;;;;;;;8.07;3.20;;;21.30;99.90;;;;;;5051264;28;20559;-65
2022/06/23 08:21:25;;;;;;;10.10;3.88;;;21.40;99.90;;;;;;5034102;28;20042;-65
2022/06/23 08:24:08;;;;;;;8.52;3.05;;;21.50;99.90;;;;;;5050211;28;20041;-65
2022/06/23 08:26:38;;;;;;;13.25;4.00;;;21.50;99.90;;;;;;5050867;28;20041;-65
2022/06/23 08:29:10;;;;;;;10.75;3.75;;;21.50;99.90;;;;;;5039275;28;20098;-65
2022/06/23 08:31:37;;;;;;;9.13;3.15;;;21.60;99.90;;;;;;5047614;28;20516;-65
2022/06/23 08:34:24;;;;;;;8.13;3.00;;;21.80;99.90;;;;;;5051072;28;20504;-65
2022/06/23 08:36:56;;;;;;;10.77;2.67;;;22.00;99.90;;;;;;5043698;28;20369;-65
2022/06/23 08:39:25;;;;;;;10.07;2.83;;;22.20;99.90;;;;;;5046224;28;20396;-65
2022/06/23 08:42:17;;;;;;;9.18;3.17;;;22.30;99.90;;;;;;5050686;28;20052;-65
2022/06/23 08:44:51;;;;;;;6.80;2.97;;;22.40;99.90;;;;;;5048037;28;20465;-65
2022/06/23 08:47:24;;;;;;;6.78;3.22;;;22.50;99.90;;;;;;5042350;28;20053;-65
2022/06/23 08:50:02;;;;;;;7.15;3.45;;;22.50;99.90;;;;;;5051027;28;20049;-65
2022/06/23 08:52:50;;;;;;;8.65;3.40;;;22.60;99.90;;;;;;5047521;28;20055;-65
2022/06/23 08:55:23;;;;;;;8.93;2.72;;;22.60;99.90;;;;;;5033327;28;20395;-65
2022/06/23 08:58:35;;;;;;;6.38;3.50;;;22.50;99.90;;;;;;5030571;28;20049;-65
2022/06/23 09:01:38;;;;;;;7.43;3.05;;;22.60;99.90;;;;;;5030740;28;20061;-65
2022/06/23 09:04:23;;;;;;;4.82;3.25;;;22.80;99.90;;;;;;5031450;28;20033;-65
2022/06/23 09:06:59;;;;;;;5.65;2.33;;;22.80;99.90;;;;;;5031596;28;20120;-65
2022/06/23 09:09:48;;;;;;;10.48;3.58;;;22.90;99.90;;;;;;5034798;28;20052;-66
2022/06/23 09:12:17;;;;;;;7.32;2.67;;;23.10;99.90;;;;;;5036733;28;20047;-66
2022/06/23 09:15:13;;;;;;;11.23;2.90;;;23.40;99.90;;;;;;5051746;28;20320;-65
2022/06/23 09:18:16;;;;;;;10.80;2.60;;;23.50;99.90;;;;;;5054517;28;20044;-66
2022/06/23 09:21:01;;;;;;;8.27;3.13;;;23.50;99.90;;;;;;5038225;28;20050;-65
2022/06/23 09:24:24;;;;;;;10.98;3.13;;;23.60;99.90;;;;;;5046195;28;20118;-65
2022/06/23 09:27:13;;;;;;;8.48;2.92;;;23.80;99.90;;;;;;5054018;28;20044;-65
2022/06/23 09:29:39;;;;;;;;;;;23.80;99.90;;;;;;5053122;28;20052;-66
2022/06/23 09:32:23;;;;;;;8.18;2.58;;;23.80;99.90;;;;;;5042048;28;20374;-65
2022/06/23 09:35:04;;;;;;;5.60;2.83;;;23.90;99.90;;;;;;5052859;28;20071;-66
2022/06/23 09:37:53;;;;;;;11.07;2.80;;;24.00;99.90;;;;;;5054151;28;20489;-65
2022/06/23 09:40:39;;;;;;;6.70;2.50;;;24.10;99.90;;;;;;5036166;28;20052;-66
2022/06/23 09:43:25;;;;;;;7.22;2.85;;;24.00;99.90;;;;;;5014921;28;20054;-66
2022/06/23 09:46:09;;;;;;;7.93;2.90;;;24.10;99.90;;;;;;4997261;28;20446;-66
2022/06/23 09:48:50;;;;;;;8.75;3.33;;;24.20;99.90;;;;;;5034670;28;20090;-66
2022/06/23 09:51:32;;;;;;;8.05;2.63;;;24.30;99.90;;;;;;5047544;28;20037;-66
2022/06/23 09:54:31;;;;;;;3.30;2.30;;;24.30;99.90;;;;;;5053815;28;20041;-66
2022/06/23 09:57:04;;;;;;;;;;;24.30;99.90;;;;;;5009192;28;20061;-66
2022/06/23 09:59:56;;;;;;;7.85;3.10;;;24.50;99.90;;;;;;5033621;28;19940;-66
2022/06/23 10:02:54;;;;;;;7.90;2.33;;;24.50;99.90;;;;;;5033288;28;20037;-66
2022/06/23 10:05:39;;;;;;;10.27;2.40;;;24.60;99.90;;;;;;5028409;28;20037;-66
2022/06/23 10:08:27;;;;;;;7.03;2.53;;;24.70;99.90;;;;;;5034467;28;20092;-66
2022/06/23 10:11:15;;;;;;;9.37;2.60;;;24.80;99.90;;;;;;5052158;28;20045;-66
2022/06/23 10:13:50;;;;;;;;;;;24.90;99.90;;;;;;5051867;28;20045;-65
2022/06/23 10:16:35;;;;;;;4.95;1.98;;;25.20;99.90;;;;;;5035984;28;19975;-66
2022/06/23 10:19:21;;;;;;;7.43;2.60;;;25.20;99.90;;;;;;5012928;28;20038;-66
2022/06/23 10:22:20;;;;;;;8.68;2.55;;;25.30;99.90;;;;;;4995933;28;20042;-66
2022/06/23 10:25:13;;;;;;;9.43;2.42;;;25.40;99.90;;;;;;5041865;28;20092;-66
2022/06/23 10:27:56;;;;;;;6.63;2.17;;;25.50;99.90;;;;;;5053110;28;20064;-66
2022/06/23 10:30:52;;;;;;;5.25;2.25;;;25.40;99.90;;;;;;5052838;28;20049;-66
2022/06/23 10:33:41;;;;;;;5.55;2.13;;;25.50;99.90;;;;;;5035537;28;20123;-66
2022/06/23 10:36:22;;;;;;;;;;;25.70;99.90;;;;;;5014163;28;20482;-66
2022/06/23 10:39:15;;;;;;;5.95;2.08;;;25.90;99.90;;;;;;5013242;28;19926;-66
2022/06/23 10:42:15;;;;;;;7.90;2.33;;;25.90;99.90;;;;;;5035594;28;20045;-66
2022/06/23 10:45:15;;;;;;;12.10;2.50;;;26.10;99.90;;;;;;5050464;28;20044;-66
2022/06/23 10:48:20;;;;;;;6.55;2.25;;;26.10;99.90;;;;;;5051802;28;20052;-66
2022/06/23 10:51:00;;;;;;;4.70;2.13;;;26.30;99.90;;;;;;5013576;28;20477;-66
2022/06/23 10:53:48;;;;;;;6.07;2.15;;;26.20;99.90;;;;;;5052903;28;20123;-66
2022/06/23 10:56:52;;;;;;;5.72;2.20;;;26.30;99.90;;;;;;5049869;28;20130;-66
2022/06/23 10:59:35;;;;;;;8.18;2.25;;;26.60;99.90;;;;;;5041365;28;20037;-66
2022/06/23 11:02:38;;;;;;;7.90;2.60;;;26.70;99.90;;;;;;5052170;28;20048;-66
2022/06/23 11:05:29;;;;;;;7.43;2.33;;;26.70;99.90;;;;;;5044491;28;20050;-66
2022/06/23 11:08:20;;;;;;;6.13;2.20;;;26.60;99.90;;;;;;5042893;28;20103;-66
2022/06/23 11:11:11;;;;;;;6.80;2.00;;;26.60;99.90;;;;;;5034425;28;20048;-66
2022/06/23 11:14:13;;;;;;;5.70;2.70;;;26.60;99.90;;;;;;5045024;28;20506;-66
2022/06/23 11:17:00;;;;;;;6.10;2.25;;;26.80;99.90;;;;;;5049554;28;20041;-65
2022/06/23 11:19:42;;;;;;;8.15;2.08;;;26.90;99.90;;;;;;5052028;28;20049;-66
2022/06/23 11:22:27;;;;;;;6.82;2.28;;;26.90;99.90;;;;;;5042164;28;20049;-66
2022/06/23 11:25:13;;;;;;;7.75;1.90;;;27.00;99.90;;;;;;5042152;28;20128;-66
2022/06/23 11:28:14;;;;;;;5.18;2.50;;;27.00;99.90;;;;;;5038635;28;20041;-66
2022/06/23 11:31:05;;;;;;;8.00;2.22;;;27.10;99.90;;;;;;5029111;28;20057;-66
2022/06/23 11:33:47;;;;;;;8.27;1.80;;;27.20;99.90;;;;;;5031939;28;20039;-66
2022/06/23 11:36:51;;;;;;;11.50;2.80;;;27.30;99.90;;;;;;5029160;28;20052;-66
2022/06/23 11:39:40;;;;;;;8.90;2.47;;;27.20;99.90;;;;;;5031859;28;20521;-66
2022/06/23 11:42:45;;;;;;;7.38;2.45;;;27.30;99.90;;;;;;5031431;28;20767;-66
2022/06/23 11:45:41;;;;;;;10.27;2.90;;;27.40;99.90;;;;;;5027472;28;20041;-66
2022/06/23 11:48:31;;;;;;;10.38;2.35;;;27.60;99.90;;;;;;5031793;28;20042;-66
2022/06/23 11:51:44;;;;;;;10.32;2.60;;;27.70;99.90;;;;;;5031000;28;20222;-66
2022/06/23 11:54:28;;;;;;;8.15;2.10;;;28.00;99.90;;;;;;4964102;28;20070;-66
2022/06/23 11:57:23;;;;;;;6.90;1.92;;;28.00;99.90;;;;;;5011647;28;20081;-65
2022/06/23 12:00:02;;;;;;;7.00;2.13;;;28.10;99.90;;;;;;4975045;28;20097;-66
2022/06/23 12:03:04;;;;;;;10.55;2.50;;;28.20;99.90;;;;;;5037358;28;20509;-66
2022/06/23 12:05:52;;;;;;;7.47;2.10;;;28.40;99.90;;;;;;5031404;28;20068;-66
2022/06/23 12:08:32;;;;;;;7.43;1.90;;;28.50;99.90;;;;;;5030664;28;20152;-66
2022/06/23 12:11:00;;;;;;;5.63;1.52;;;28.40;99.90;;;;;;5042040;28;20045;-66
2022/06/23 12:13:29;;;;;;;5.43;2.15;;;28.40;99.90;;;;;;5050726;28;20049;-66
2022/06/23 12:15:56;;;;;;;5.97;1.70;;;28.40;99.90;;;;;;5051408;28;20056;-66
2022/06/23 12:18:30;;;;;;;;;;;28.30;99.90;;;;;;5037530;28;20049;-66
2022/06/23 12:21:10;;;;;;;8.00;1.73;;;28.40;99.90;;;;;;5042536;28;19920;-66
2022/06/23 12:23:50;;;;;;;3.78;1.58;;;28.50;99.90;;;;;;5051463;28;20063;-66
2022/06/23 12:26:38;;;;;;;6.10;2.20;;;28.70;99.90;;;;;;5050734;28;20040;-66
2022/06/23 12:29:39;;;;;;;4.25;1.40;;;28.50;99.90;;;;;;5032377;28;20063;-66
2022/06/23 12:32:30;;;;;;;3.72;1.67;;;28.40;99.90;;;;;;5027251;28;20053;-66
2022/06/23 12:35:09;;;;;;;10.23;2.00;;;28.70;99.90;;;;;;5030793;28;20041;-66
2022/06/23 12:37:47;;;;;;;2.90;1.80;;;28.60;99.90;;;;;;5039432;28;20041;-66
2022/06/23 12:40:40;;;;;;;7.03;2.20;;;28.70;99.90;;;;;;5050778;28;20045;-66
2022/06/23 12:43:18;;;;;;;6.25;1.77;;;28.70;99.90;;;;;;5033052;28;20037;-66
2022/06/23 12:46:05;;;;;;;8.50;2.38;;;28.60;99.90;;;;;;5035067;28;20115;-66
2022/06/23 12:49:01;;;;;;;7.25;2.25;;;28.40;99.90;;;;;;5035131;28;20540;-66
2022/06/23 12:52:12;;;;;;;9.00;2.22;;;28.60;99.90;;;;;;5041414;28;20045;-66
2022/06/23 12:55:05;;;;;;;6.13;2.28;;;28.60;99.90;;;;;;5049460;28;20094;-66
2022/06/23 12:58:11;;;;;;;6.78;2.45;;;28.60;99.90;;;;;;5054622;28;20122;-66
2022/06/23 13:00:38;;;;;;;6.00;2.13;;;28.80;99.90;;;;;;5046436;28;20079;-66
2022/06/23 13:03:23;;;;;;;9.32;2.60;;;28.70;99.90;;;;;;5047381;28;20104;-66
2022/06/23 13:05:58;;;;;;;11.65;2.78;;;28.50;99.90;;;;;;5054633;28;20052;-66
2022/06/23 13:08:33;;;;;;;7.35;2.60;;;28.60;99.90;;;;;;5049595;28;20037;-66
2022/06/23 13:11:26;;;;;;;5.35;2.70;;;28.50;99.90;;;;;;5037918;28;20045;-66
2022/06/23 13:13:59;;;;;;;11.18;3.45;;;28.40;99.90;;;;;;5054766;28;20091;-66
2022/06/23 13:16:41;;;;;;;9.57;2.60;;;28.40;99.90;;;;;;5052156;28;20087;-66
2022/06/23 13:19:31;;;;;;;7.10;2.95;;;28.40;99.90;;;;;;5040150;28;20088;-66
2022/06/23 13:22:18;;;;;;;6.05;2.50;;;28.60;99.90;;;;;;5054356;28;20133;-66
2022/06/23 13:24:45;;;;;;;9.88;2.97;;;28.70;99.90;;;;;;5051730;28;20049;-66
2022/06/23 13:27:19;;;;;;;6.07;2.72;;;28.80;99.90;;;;;;5035991;28;20045;-66
2022/06/23 13:30:00;;;;;;;6.82;2.58;;;28.70;99.90;;;;;;5052432;28;20566;-66
2022/06/23 13:32:39;;;;;;;9.43;2.47;;;28.40;99.90;;;;;;5052206;28;20045;-66
2022/06/23 13:35:19;;;;;;;6.15;2.38;;;28.30;99.90;;;;;;5035132;28;20045;-66
2022/06/23 13:38:07;;;;;;;8.13;2.50;;;28.30;99.90;;;;;;5034166;28;20053;-66
2022/06/23 13:40:49;;;;;;;7.55;2.70;;;28.30;99.90;;;;;;5033934;28;20099;-66
2022/06/23 13:43:26;;;;;;;10.00;3.10;;;28.20;99.90;;;;;;5030970;28;20038;-66
2022/06/23 13:46:01;;;;;;;11.93;2.67;;;28.20;99.90;;;;;;5034054;28;20048;-66
2022/06/23 13:49:10;;;;;;;11.13;2.80;;;28.20;99.90;;;;;;5075578;22;20072;-62
2022/06/23 13:52:08;;;;;;;6.00;2.58;;;28.20;99.90;;;;;;5079311;28;20101;-63
2022/06/23 13:54:45;;;;;;;12.02;3.13;;;28.20;99.90;;;;;;5066578;28;20104;-65
2022/06/23 13:57:22;;;;;;;9.20;2.80;;;28.20;99.90;;;;;;5067209;28;20322;-65
2022/06/23 14:00:09;;;;;;;8.65;2.67;;;28.20;99.90;;;;;;5052478;28;20037;-65
2022/06/23 14:02:43;;;;;;;8.40;2.70;;;28.20;99.90;;;;;;5067505;28;20111;-65
2022/06/23 14:05:32;;;;;;;7.07;2.90;;;28.20;99.90;;;;;;5074053;28;20048;-65
2022/06/23 14:08:10;;;;;;;9.85;3.00;;;28.20;99.90;;;;;;5073631;28;20102;-66
2022/06/23 14:11:00;;;;;;;9.00;2.60;;;28.30;99.90;;;;;;5069266;28;20036;-65